Rankin, IL (60960)

1:32 AM CDT on September 29, 2016 (GMT -0500)
KILHOOPE3 | | Change Station

Elev 0 ft 40.48 °N, 87.66 °W | Updated 4 minutes ago

Overcast
Overcast
53.4 °F
Feels Like 53.4 °F
N
5.8
Wind Variable Wind from NW

Today
High -- | Low -- °F
--% Chance of Precip.
Yesterday
High -- | Low -- °F
Precip. -- in
Pressure 30.02 in
Visibility 10.0 miles
Clouds Mostly Cloudy 1000 ft
Overcast 3200 ft
Dew Point 53 °F
Humidity 97%
Rainfall 0.00 in
Snow Depth Not available.
6:46 AM 6:36 PM
Waning Crescent, 3% visible
METAR KTIP 290615Z AUTO 34010G17KT 10SM BKN010 OVC032 14/12 A3002 RMK AO2 T01370123
Pressure 30.02 in
Visibility 10.0 miles
Clouds Mostly Cloudy 1000 ft
Overcast 3200 ft
Dew Point 53 °F
Humidity 97%
Rainfall 0.00 in
Snow Depth Not available.
6:46 AM 6:36 PM
Waning Crescent, 3% visible
METAR KTIP 290615Z AUTO 34010G17KT 10SM BKN010 OVC032 14/12 A3002 RMK AO2 T01370123

10-Day Weather Forecast

Almanac

Astronomy

Sep. 29, 2016 Rise Set
Actual Time
Civil Twilight
Nautical Twilight
Astronomical Twilight
Moon
Length of Visible Light
Length of Day
Tomorrow will be .
, % of the Moon is Illuminated

Today's Extremes

State Highs State Lows

Community

WunderPhotos

Upload Photos

1,942,446 photos uploaded!

WunderBlog® & News

Nearby

Air Quality

  Air Quality AQ Index Pollutant
Not available.

Snow Depth

Station Depth Elevation

Earthquake Activity

City Distance Mag. Time & Date
Minimum magnitude displayed is 2.5.

Coastal Water Temperatures

Place Temperature

Stations

Nearby Weather Stations

Station Location Temp. Windchill Dew Point Humidity Wind Precip. Elev Updated Type
                   

Watches & Warnings

There are currently no watches in effect.